sensor_id;sensor_type;location;lat;lon;timestamp;temperature;humidity
21944;DHT22;11136;48.778;9.126;2022-10-16T00:01:21;16.40;99.90
21944;DHT22;11136;48.778;9.126;2022-10-16T00:03:48;16.50;99.90
21944;DHT22;11136;48.778;9.126;2022-10-16T00:06:15;16.50;99.90
21944;DHT22;11136;48.778;9.126;2022-10-16T00:08:41;16.40;99.90
21944;DHT22;11136;48.778;9.126;2022-10-16T00:13:35;16.40;99.90
21944;DHT22;11136;48.778;9.126;2022-10-16T00:16:02;16.40;99.90
21944;DHT22;11136;48.778;9.126;2022-10-16T00:18:28;16.40;99.90
21944;DHT22;11136;48.778;9.126;2022-10-16T00:20:55;16.30;99.90
21944;DHT22;11136;48.778;9.126;2022-10-16T00:23:21;16.30;99.90
21944;DHT22;11136;48.778;9.126;2022-10-16T00:26:02;16.30;99.90
21944;DHT22;11136;48.778;9.126;2022-10-16T00:28:28;16.30;99.90
21944;DHT22;11136;48.778;9.126;2022-10-16T00:30:54;16.30;99.90
21944;DHT22;11136;48.778;9.126;2022-10-16T00:33:19;16.30;99.90
21944;DHT22;11136;48.778;9.126;2022-10-16T00:35:45;16.30;99.90
21944;DHT22;11136;48.778;9.126;2022-10-16T00:38:10;16.20;99.90
21944;DHT22;11136;48.778;9.126;2022-10-16T00:40:36;16.20;99.90
21944;DHT22;11136;48.778;9.126;2022-10-16T00:43:02;16.20;99.90
21944;DHT22;11136;48.778;9.126;2022-10-16T00:45:28;16.20;99.90
21944;DHT22;11136;48.778;9.126;2022-10-16T00:47:55;16.20;99.90
21944;DHT22;11136;48.778;9.126;2022-10-16T00:50:33;16.30;99.90
21944;DHT22;11136;48.778;9.126;2022-10-16T00:53:00;16.30;99.90
21944;DHT22;11136;48.778;9.126;2022-10-16T00:55:27;16.10;99.90
21944;DHT22;11136;48.778;9.126;2022-10-16T00:57:55;16.20;99.90
21944;DHT22;11136;48.778;9.126;2022-10-16T01:00:24;16.10;99.90
21944;DHT22;11136;48.778;9.126;2022-10-16T01:02:55;16.20;99.90
21944;DHT22;11136;48.778;9.126;2022-10-16T01:05:39;16.20;99.90
21944;DHT22;11136;48.778;9.126;2022-10-16T01:08:21;16.20;99.90
21944;DHT22;11136;48.778;9.126;2022-10-16T01:10:57;16.10;99.90
21944;DHT22;11136;48.778;9.126;2022-10-16T01:13:29;16.10;99.90
21944;DHT22;11136;48.778;9.126;2022-10-16T01:16:12;16.10;99.90
21944;DHT22;11136;48.778;9.126;2022-10-16T01:18:47;16.50;99.90
21944;DHT22;11136;48.778;9.126;2022-10-16T01:24:17;16.10;99.90
21944;DHT22;11136;48.778;9.126;2022-10-16T01:27:04;16.10;99.90
21944;DHT22;11136;48.778;9.126;2022-10-16T01:29:39;16.10;99.90
21944;DHT22;11136;48.778;9.126;2022-10-16T01:32:18;16.10;99.90
21944;DHT22;11136;48.778;9.126;2022-10-16T01:35:00;16.10;99.90
21944;DHT22;11136;48.778;9.126;2022-10-16T01:37:46;16.10;99.90
21944;DHT22;11136;48.778;9.126;2022-10-16T01:40:16;16.10;99.90
21944;DHT22;11136;48.778;9.126;2022-10-16T01:42:46;16.10;99.90
21944;DHT22;11136;48.778;9.126;2022-10-16T01:45:15;16.10;99.90
21944;DHT22;11136;48.778;9.126;2022-10-16T01:47:44;16.10;99.90
21944;DHT22;11136;48.778;9.126;2022-10-16T01:50:12;16.10;99.90
21944;DHT22;11136;48.778;9.126;2022-10-16T01:52:43;16.20;99.90
21944;DHT22;11136;48.778;9.126;2022-10-16T01:55:12;16.20;99.90
21944;DHT22;11136;48.778;9.126;2022-10-16T01:57:42;16.20;99.90
21944;DHT22;11136;48.778;9.126;2022-10-16T02:00:12;16.20;99.90
21944;DHT22;11136;48.778;9.126;2022-10-16T02:02:40;16.30;99.90
21944;DHT22;11136;48.778;9.126;2022-10-16T02:05:26;16.20;99.90
21944;DHT22;11136;48.778;9.126;2022-10-16T02:07:54;16.30;99.90
21944;DHT22;11136;48.778;9.126;2022-10-16T02:10:20;16.30;99.90
21944;DHT22;11136;48.778;9.126;2022-10-16T02:12:50;16.30;99.90
21944;DHT22;11136;48.778;9.126;2022-10-16T02:15:19;16.30;99.90
21944;DHT22;11136;48.778;9.126;2022-10-16T02:17:44;16.30;99.90
21944;DHT22;11136;48.778;9.126;2022-10-16T02:20:10;16.30;99.90
21944;DHT22;11136;48.778;9.126;2022-10-16T02:22:40;16.20;99.90
21944;DHT22;11136;48.778;9.126;2022-10-16T02:25:12;16.30;99.90
21944;DHT22;11136;48.778;9.126;2022-10-16T02:28:02;16.30;99.90
21944;DHT22;11136;48.778;9.126;2022-10-16T02:33:08;16.30;99.90
21944;DHT22;11136;48.778;9.126;2022-10-16T02:35:36;16.20;99.90
21944;DHT22;11136;48.778;9.126;2022-10-16T02:38:03;16.20;99.90
21944;DHT22;11136;48.778;9.126;2022-10-16T02:40:29;16.20;99.90
21944;DHT22;11136;48.778;9.126;2022-10-16T02:42:55;16.20;99.90
21944;DHT22;11136;48.778;9.126;2022-10-16T02:45:21;16.20;99.90
21944;DHT22;11136;48.778;9.126;2022-10-16T02:47:47;16.20;99.90
21944;DHT22;11136;48.778;9.126;2022-10-16T02:50:13;16.20;99.90
21944;DHT22;11136;48.778;9.126;2022-10-16T02:52:38;16.20;99.90
21944;DHT22;11136;48.778;9.126;2022-10-16T02:55:05;16.20;99.90
21944;DHT22;11136;48.778;9.126;2022-10-16T02:57:30;16.20;99.90
21944;DHT22;11136;48.778;9.126;2022-10-16T02:59:57;16.20;99.90
21944;DHT22;11136;48.778;9.126;2022-10-16T03:02:22;16.20;99.90
21944;DHT22;11136;48.778;9.126;2022-10-16T03:04:48;16.20;99.90
21944;DHT22;11136;48.778;9.126;2022-10-16T03:07:14;16.20;99.90
21944;DHT22;11136;48.778;9.126;2022-10-16T03:09:39;16.20;99.90
21944;DHT22;11136;48.778;9.126;2022-10-16T03:12:05;16.20;99.90
21944;DHT22;11136;48.778;9.126;2022-10-16T03:14:30;16.20;99.90
21944;DHT22;11136;48.778;9.126;2022-10-16T03:16:56;16.20;99.90
21944;DHT22;11136;48.778;9.126;2022-10-16T03:19:21;16.20;99.90
21944;DHT22;11136;48.778;9.126;2022-10-16T03:21:47;16.20;99.90
21944;DHT22;11136;48.778;9.126;2022-10-16T03:24:13;16.20;99.90
21944;DHT22;11136;48.778;9.126;2022-10-16T03:26:38;16.20;99.90
21944;DHT22;11136;48.778;9.126;2022-10-16T03:29:04;16.20;99.90
21944;DHT22;11136;48.778;9.126;2022-10-16T03:31:30;16.30;99.90
21944;DHT22;11136;48.778;9.126;2022-10-16T03:33:56;16.10;99.90
21944;DHT22;11136;48.778;9.126;2022-10-16T03:36:22;16.10;99.90
21944;DHT22;11136;48.778;9.126;2022-10-16T03:38:48;16.10;99.90
21944;DHT22;11136;48.778;9.126;2022-10-16T03:41:13;16.10;99.90
21944;DHT22;11136;48.778;9.126;2022-10-16T03:43:39;16.10;99.90
21944;DHT22;11136;48.778;9.126;2022-10-16T03:46:04;16.00;99.90
21944;DHT22;11136;48.778;9.126;2022-10-16T03:48:30;16.00;99.90
21944;DHT22;11136;48.778;9.126;2022-10-16T03:50:57;16.00;99.90
21944;DHT22;11136;48.778;9.126;2022-10-16T03:53:23;16.00;99.90
21944;DHT22;11136;48.778;9.126;2022-10-16T03:55:49;16.00;99.90
21944;DHT22;11136;48.778;9.126;2022-10-16T03:58:14;16.00;99.90
21944;DHT22;11136;48.778;9.126;2022-10-16T04:00:41;16.00;99.90
21944;DHT22;11136;48.778;9.126;2022-10-16T04:03:07;16.00;99.90
21944;DHT22;11136;48.778;9.126;2022-10-16T04:05:32;16.00;99.90
21944;DHT22;11136;48.778;9.126;2022-10-16T04:07:58;16.00;99.90
21944;DHT22;11136;48.778;9.126;2022-10-16T04:10:23;16.00;99.90
21944;DHT22;11136;48.778;9.126;2022-10-16T04:12:49;16.00;99.90
21944;DHT22;11136;48.778;9.126;2022-10-16T04:15:15;16.00;99.90
21944;DHT22;11136;48.778;9.126;2022-10-16T04:17:40;16.00;99.90
21944;DHT22;11136;48.778;9.126;2022-10-16T04:20:06;16.00;99.90
21944;DHT22;11136;48.778;9.126;2022-10-16T04:22:32;16.00;99.90
21944;DHT22;11136;48.778;9.126;2022-10-16T04:24:57;16.00;99.90
21944;DHT22;11136;48.778;9.126;2022-10-16T04:27:23;16.00;99.90
21944;DHT22;11136;48.778;9.126;2022-10-16T04:29:48;16.00;99.90
21944;DHT22;11136;48.778;9.126;2022-10-16T04:32:14;16.00;99.90
21944;DHT22;11136;48.778;9.126;2022-10-16T04:34:39;16.10;99.90
21944;DHT22;11136;48.778;9.126;2022-10-16T04:37:05;16.00;99.90
21944;DHT22;11136;48.778;9.126;2022-10-16T04:39:31;16.00;99.90
21944;DHT22;11136;48.778;9.126;2022-10-16T04:41:56;16.00;99.90
21944;DHT22;11136;48.778;9.126;2022-10-16T04:44:22;16.00;99.90
21944;DHT22;11136;48.778;9.126;2022-10-16T04:46:50;16.00;99.90
21944;DHT22;11136;48.778;9.126;2022-10-16T04:49:15;16.00;99.90
21944;DHT22;11136;48.778;9.126;2022-10-16T04:51:41;16.00;99.90
21944;DHT22;11136;48.778;9.126;2022-10-16T04:54:06;16.00;99.90
21944;DHT22;11136;48.778;9.126;2022-10-16T04:56:32;16.00;99.90
21944;DHT22;11136;48.778;9.126;2022-10-16T04:58:58;16.00;99.90
21944;DHT22;11136;48.778;9.126;2022-10-16T05:01:23;16.00;99.90
21944;DHT22;11136;48.778;9.126;2022-10-16T05:03:49;15.90;99.90
21944;DHT22;11136;48.778;9.126;2022-10-16T05:06:14;16.00;99.90
21944;DHT22;11136;48.778;9.126;2022-10-16T05:08:40;16.00;99.90
21944;DHT22;11136;48.778;9.126;2022-10-16T05:11:05;15.90;99.90
21944;DHT22;11136;48.778;9.126;2022-10-16T05:13:31;16.00;99.90
21944;DHT22;11136;48.778;9.126;2022-10-16T05:15:56;16.00;99.90
21944;DHT22;11136;48.778;9.126;2022-10-16T05:18:22;16.00;99.90
21944;DHT22;11136;48.778;9.126;2022-10-16T05:20:48;16.00;99.90
21944;DHT22;11136;48.778;9.126;2022-10-16T05:23:13;16.00;99.90
21944;DHT22;11136;48.778;9.126;2022-10-16T05:25:39;16.00;99.90
21944;DHT22;11136;48.778;9.126;2022-10-16T05:28:04;16.00;99.90
21944;DHT22;11136;48.778;9.126;2022-10-16T05:30:30;16.00;99.90
21944;DHT22;11136;48.778;9.126;2022-10-16T05:32:55;16.00;99.90
21944;DHT22;11136;48.778;9.126;2022-10-16T05:35:21;16.00;99.90
21944;DHT22;11136;48.778;9.126;2022-10-16T05:37:47;16.00;99.90
21944;DHT22;11136;48.778;9.126;2022-10-16T05:40:13;16.00;99.90
21944;DHT22;11136;48.778;9.126;2022-10-16T05:42:40;15.90;99.90
21944;DHT22;11136;48.778;9.126;2022-10-16T05:45:07;15.90;99.90
21944;DHT22;11136;48.778;9.126;2022-10-16T05:47:34;15.90;99.90
21944;DHT22;11136;48.778;9.126;2022-10-16T05:49:59;15.90;99.90
21944;DHT22;11136;48.778;9.126;2022-10-16T05:52:26;15.90;99.90
21944;DHT22;11136;48.778;9.126;2022-10-16T05:54:51;15.90;99.90
21944;DHT22;11136;48.778;9.126;2022-10-16T05:57:17;15.90;99.90
21944;DHT22;11136;48.778;9.126;2022-10-16T05:59:42;15.90;99.90
21944;DHT22;11136;48.778;9.126;2022-10-16T06:02:12;15.90;99.90
21944;DHT22;11136;48.778;9.126;2022-10-16T06:04:38;15.90;99.90
21944;DHT22;11136;48.778;9.126;2022-10-16T06:07:03;15.90;99.90
21944;DHT22;11136;48.778;9.126;2022-10-16T06:09:29;15.90;99.90
21944;DHT22;11136;48.778;9.126;2022-10-16T06:11:54;15.90;99.90
21944;DHT22;11136;48.778;9.126;2022-10-16T06:14:20;15.90;99.90
21944;DHT22;11136;48.778;9.126;2022-10-16T06:16:45;15.90;99.90
21944;DHT22;11136;48.778;9.126;2022-10-16T06:19:11;15.90;99.90
21944;DHT22;11136;48.778;9.126;2022-10-16T06:21:37;15.90;99.90
21944;DHT22;11136;48.778;9.126;2022-10-16T06:24:02;15.90;99.90
21944;DHT22;11136;48.778;9.126;2022-10-16T06:26:29;15.90;99.90
21944;DHT22;11136;48.778;9.126;2022-10-16T06:28:57;15.90;99.90
21944;DHT22;11136;48.778;9.126;2022-10-16T06:31:23;15.90;99.90
21944;DHT22;11136;48.778;9.126;2022-10-16T06:33:52;15.90;99.90
21944;DHT22;11136;48.778;9.126;2022-10-16T06:36:18;16.00;99.90
21944;DHT22;11136;48.778;9.126;2022-10-16T06:38:44;15.90;99.90
21944;DHT22;11136;48.778;9.126;2022-10-16T06:41:16;16.00;99.90
21944;DHT22;11136;48.778;9.126;2022-10-16T06:43:42;16.00;99.90
21944;DHT22;11136;48.778;9.126;2022-10-16T06:46:09;16.00;99.90
21944;DHT22;11136;48.778;9.126;2022-10-16T06:48:36;16.10;99.90
21944;DHT22;11136;48.778;9.126;2022-10-16T06:51:10;16.10;99.90
21944;DHT22;11136;48.778;9.126;2022-10-16T06:53:38;16.10;99.90
21944;DHT22;11136;48.778;9.126;2022-10-16T06:56:12;16.10;99.90
21944;DHT22;11136;48.778;9.126;2022-10-16T06:58:38;16.10;99.90
21944;DHT22;11136;48.778;9.126;2022-10-16T07:01:05;16.10;99.90
21944;DHT22;11136;48.778;9.126;2022-10-16T07:03:31;16.20;99.90
21944;DHT22;11136;48.778;9.126;2022-10-16T07:05:56;16.20;99.90
21944;DHT22;11136;48.778;9.126;2022-10-16T07:08:22;16.20;99.90
21944;DHT22;11136;48.778;9.126;2022-10-16T07:10:47;16.20;99.90
21944;DHT22;11136;48.778;9.126;2022-10-16T07:13:13;16.20;99.90
21944;DHT22;11136;48.778;9.126;2022-10-16T07:15:40;16.30;99.90
21944;DHT22;11136;48.778;9.126;2022-10-16T07:18:06;16.20;99.90
21944;DHT22;11136;48.778;9.126;2022-10-16T07:20:32;16.30;99.90
21944;DHT22;11136;48.778;9.126;2022-10-16T07:22:58;16.30;99.90
21944;DHT22;11136;48.778;9.126;2022-10-16T07:25:23;16.40;99.90
21944;DHT22;11136;48.778;9.126;2022-10-16T07:27:49;16.40;99.90
21944;DHT22;11136;48.778;9.126;2022-10-16T07:30:15;16.40;99.90
21944;DHT22;11136;48.778;9.126;2022-10-16T07:32:40;16.40;99.90
21944;DHT22;11136;48.778;9.126;2022-10-16T07:35:06;16.40;99.90
21944;DHT22;11136;48.778;9.126;2022-10-16T07:37:32;16.40;99.90
21944;DHT22;11136;48.778;9.126;2022-10-16T07:39:57;16.50;99.90
21944;DHT22;11136;48.778;9.126;2022-10-16T07:42:23;16.50;99.90
21944;DHT22;11136;48.778;9.126;2022-10-16T07:44:48;16.50;99.90
21944;DHT22;11136;48.778;9.126;2022-10-16T07:47:14;16.50;99.90
21944;DHT22;11136;48.778;9.126;2022-10-16T07:49:39;16.50;99.90
21944;DHT22;11136;48.778;9.126;2022-10-16T07:52:05;16.60;99.90
21944;DHT22;11136;48.778;9.126;2022-10-16T07:54:30;16.70;99.90
21944;DHT22;11136;48.778;9.126;2022-10-16T07:56:56;16.60;99.90
21944;DHT22;11136;48.778;9.126;2022-10-16T07:59:21;16.60;99.90
21944;DHT22;11136;48.778;9.126;2022-10-16T08:01:49;16.70;99.90
21944;DHT22;11136;48.778;9.126;2022-10-16T08:04:14;16.70;99.90
21944;DHT22;11136;48.778;9.126;2022-10-16T08:06:41;16.70;99.90
21944;DHT22;11136;48.778;9.126;2022-10-16T08:09:07;16.70;99.90
21944;DHT22;11136;48.778;9.126;2022-10-16T08:11:33;16.80;99.90
21944;DHT22;11136;48.778;9.126;2022-10-16T08:13:59;16.80;99.90
21944;DHT22;11136;48.778;9.126;2022-10-16T08:16:24;17.00;99.90
21944;DHT22;11136;48.778;9.126;2022-10-16T08:18:50;16.90;99.90
21944;DHT22;11136;48.778;9.126;2022-10-16T08:21:18;16.90;99.90
21944;DHT22;11136;48.778;9.126;2022-10-16T08:23:44;17.00;99.90
21944;DHT22;11136;48.778;9.126;2022-10-16T08:26:11;17.10;99.90
21944;DHT22;11136;48.778;9.126;2022-10-16T08:28:37;17.20;99.90
21944;DHT22;11136;48.778;9.126;2022-10-16T08:31:14;17.20;99.90
21944;DHT22;11136;48.778;9.126;2022-10-16T08:33:42;17.30;99.90
21944;DHT22;11136;48.778;9.126;2022-10-16T08:36:10;17.30;99.90
21944;DHT22;11136;48.778;9.126;2022-10-16T08:38:36;17.50;99.90
21944;DHT22;11136;48.778;9.126;2022-10-16T08:49:15;17.40;99.90
21944;DHT22;11136;48.778;9.126;2022-10-16T08:51:40;17.50;99.90
21944;DHT22;11136;48.778;9.126;2022-10-16T08:54:34;17.50;99.90
21944;DHT22;11136;48.778;9.126;2022-10-16T08:57:19;17.50;99.90
21944;DHT22;11136;48.778;9.126;2022-10-16T08:59:45;17.50;99.90
21944;DHT22;11136;48.778;9.126;2022-10-16T09:13:17;17.60;99.90
21944;DHT22;11136;48.778;9.126;2022-10-16T09:18:44;17.80;99.90
21944;DHT22;11136;48.778;9.126;2022-10-16T09:21:40;17.80;99.90
21944;DHT22;11136;48.778;9.126;2022-10-16T09:24:17;17.90;99.90
21944;DHT22;11136;48.778;9.126;2022-10-16T09:26:44;18.00;99.90
21944;DHT22;11136;48.778;9.126;2022-10-16T09:29:18;18.00;99.90
21944;DHT22;11136;48.778;9.126;2022-10-16T09:31:47;18.10;99.90
21944;DHT22;11136;48.778;9.126;2022-10-16T09:34:35;18.10;99.90
21944;DHT22;11136;48.778;9.126;2022-10-16T09:37:04;18.20;99.90
21944;DHT22;11136;48.778;9.126;2022-10-16T09:39:47;18.30;99.90
21944;DHT22;11136;48.778;9.126;2022-10-16T09:44:51;18.30;99.90
21944;DHT22;11136;48.778;9.126;2022-10-16T09:47:21;18.40;99.90
21944;DHT22;11136;48.778;9.126;2022-10-16T09:49:59;18.40;99.90
21944;DHT22;11136;48.778;9.126;2022-10-16T09:52:28;18.40;99.90
21944;DHT22;11136;48.778;9.126;2022-10-16T09:55:08;18.50;99.90
21944;DHT22;11136;48.778;9.126;2022-10-16T09:57:47;18.60;99.90
21944;DHT22;11136;48.778;9.126;2022-10-16T10:00:16;18.70;99.90
21944;DHT22;11136;48.778;9.126;2022-10-16T10:02:43;18.80;99.90
21944;DHT22;11136;48.778;9.126;2022-10-16T10:05:24;18.90;99.90
21944;DHT22;11136;48.778;9.126;2022-10-16T10:10:23;19.00;99.90
21944;DHT22;11136;48.778;9.126;2022-10-16T10:12:49;19.10;99.90
21944;DHT22;11136;48.778;9.126;2022-10-16T10:15:15;19.10;99.90
21944;DHT22;11136;48.778;9.126;2022-10-16T10:17:50;19.20;99.90
21944;DHT22;11136;48.778;9.126;2022-10-16T10:22:51;19.30;99.90
21944;DHT22;11136;48.778;9.126;2022-10-16T10:31:03;19.40;99.90
21944;DHT22;11136;48.778;9.126;2022-10-16T10:33:40;19.50;99.90
21944;DHT22;11136;48.778;9.126;2022-10-16T10:36:25;19.60;99.90
21944;DHT22;11136;48.778;9.126;2022-10-16T10:39:32;19.70;99.90
21944;DHT22;11136;48.778;9.126;2022-10-16T10:42:27;19.80;99.90
21944;DHT22;11136;48.778;9.126;2022-10-16T10:45:16;19.90;99.90
21944;DHT22;11136;48.778;9.126;2022-10-16T10:51:04;20.10;99.90
21944;DHT22;11136;48.778;9.126;2022-10-16T10:53:42;20.30;99.90
21944;DHT22;11136;48.778;9.126;2022-10-16T10:56:38;20.40;99.90
21944;DHT22;11136;48.778;9.126;2022-10-16T11:00:08;20.40;99.90
21944;DHT22;11136;48.778;9.126;2022-10-16T11:02:46;20.50;99.90
21944;DHT22;11136;48.778;9.126;2022-10-16T11:07:48;20.70;99.90
21944;DHT22;11136;48.778;9.126;2022-10-16T11:13:42;20.70;99.90
21944;DHT22;11136;48.778;9.126;2022-10-16T11:16:15;20.70;99.90
21944;DHT22;11136;48.778;9.126;2022-10-16T11:24:23;20.80;99.90
21944;DHT22;11136;48.778;9.126;2022-10-16T11:26:52;20.90;99.90
21944;DHT22;11136;48.778;9.126;2022-10-16T11:29:28;21.10;99.90
21944;DHT22;11136;48.778;9.126;2022-10-16T11:31:59;21.20;99.90
21944;DHT22;11136;48.778;9.126;2022-10-16T11:34:40;21.20;99.90
21944;DHT22;11136;48.778;9.126;2022-10-16T11:39:45;21.30;99.90
21944;DHT22;11136;48.778;9.126;2022-10-16T11:42:18;21.30;99.90
21944;DHT22;11136;48.778;9.126;2022-10-16T11:45:09;21.40;99.90
21944;DHT22;11136;48.778;9.126;2022-10-16T11:47:45;21.50;99.90
21944;DHT22;11136;48.778;9.126;2022-10-16T11:50:25;21.60;99.90
21944;DHT22;11136;48.778;9.126;2022-10-16T11:58:06;21.90;99.90
21944;DHT22;11136;48.778;9.126;2022-10-16T12:01:01;22.00;99.90
21944;DHT22;11136;48.778;9.126;2022-10-16T12:08:51;22.30;99.90
21944;DHT22;11136;48.778;9.126;2022-10-16T12:11:32;22.40;99.90
21944;DHT22;11136;48.778;9.126;2022-10-16T12:16:30;22.60;99.90
21944;DHT22;11136;48.778;9.126;2022-10-16T12:19:16;22.70;99.90
21944;DHT22;11136;48.778;9.126;2022-10-16T12:21:43;22.70;99.90
21944;DHT22;11136;48.778;9.126;2022-10-16T12:26:56;22.90;99.90
21944;DHT22;11136;48.778;9.126;2022-10-16T12:29:40;23.00;99.90
21944;DHT22;11136;48.778;9.126;2022-10-16T12:35:02;23.20;99.90
21944;DHT22;11136;48.778;9.126;2022-10-16T12:37:34;23.30;99.90
21944;DHT22;11136;48.778;9.126;2022-10-16T12:40:30;23.20;99.90
21944;DHT22;11136;48.778;9.126;2022-10-16T12:42:57;23.30;99.90
21944;DHT22;11136;48.778;9.126;2022-10-16T12:45:31;23.40;99.90
21944;DHT22;11136;48.778;9.126;2022-10-16T12:48:01;23.30;99.90
21944;DHT22;11136;48.778;9.126;2022-10-16T12:50:33;23.30;99.90
21944;DHT22;11136;48.778;9.126;2022-10-16T12:53:01;23.30;99.90
21944;DHT22;11136;48.778;9.126;2022-10-16T12:55:33;23.20;99.90
21944;DHT22;11136;48.778;9.126;2022-10-16T13:00:57;23.20;99.90
21944;DHT22;11136;48.778;9.126;2022-10-16T13:14:47;23.10;99.90
21944;DHT22;11136;48.778;9.126;2022-10-16T13:25:32;23.40;99.90
21944;DHT22;11136;48.778;9.126;2022-10-16T13:28:06;23.50;99.90
21944;DHT22;11136;48.778;9.126;2022-10-16T13:30:41;23.60;99.90
21944;DHT22;11136;48.778;9.126;2022-10-16T13:33:14;23.60;99.90
21944;DHT22;11136;48.778;9.126;2022-10-16T13:35:51;23.60;99.90
21944;DHT22;11136;48.778;9.126;2022-10-16T13:38:20;23.50;99.90
21944;DHT22;11136;48.778;9.126;2022-10-16T13:40:51;23.50;99.90
21944;DHT22;11136;48.778;9.126;2022-10-16T13:43:19;23.40;99.90
21944;DHT22;11136;48.778;9.126;2022-10-16T13:45:55;23.40;99.90
21944;DHT22;11136;48.778;9.126;2022-10-16T13:48:21;23.40;99.90
21944;DHT22;11136;48.778;9.126;2022-10-16T13:51:01;23.40;99.90
21944;DHT22;11136;48.778;9.126;2022-10-16T13:53:30;23.40;99.90
21944;DHT22;11136;48.778;9.126;2022-10-16T13:55:56;23.40;99.90
21944;DHT22;11136;48.778;9.126;2022-10-16T13:58:22;23.60;99.90
21944;DHT22;11136;48.778;9.126;2022-10-16T14:00:59;23.40;99.90
21944;DHT22;11136;48.778;9.126;2022-10-16T14:03:26;23.40;99.90
21944;DHT22;11136;48.778;9.126;2022-10-16T14:05:54;23.50;99.90
21944;DHT22;11136;48.778;9.126;2022-10-16T14:08:22;23.20;99.90
21944;DHT22;11136;48.778;9.126;2022-10-16T14:10:52;23.40;99.90
21944;DHT22;11136;48.778;9.126;2022-10-16T14:13:23;23.40;99.90
21944;DHT22;11136;48.778;9.126;2022-10-16T14:15:52;23.50;99.90
21944;DHT22;11136;48.778;9.126;2022-10-16T14:18:22;23.30;99.90
21944;DHT22;11136;48.778;9.126;2022-10-16T14:20:49;23.30;99.90
21944;DHT22;11136;48.778;9.126;2022-10-16T14:23:30;23.40;99.90
21944;DHT22;11136;48.778;9.126;2022-10-16T14:29:19;23.20;99.90
21944;DHT22;11136;48.778;9.126;2022-10-16T14:31:58;23.20;99.90
21944;DHT22;11136;48.778;9.126;2022-10-16T14:36:55;23.10;99.90
21944;DHT22;11136;48.778;9.126;2022-10-16T14:39:22;23.40;99.90
21944;DHT22;11136;48.778;9.126;2022-10-16T14:41:51;23.10;99.90
21944;DHT22;11136;48.778;9.126;2022-10-16T14:44:18;23.00;99.90
21944;DHT22;11136;48.778;9.126;2022-10-16T14:46:45;23.00;99.90
21944;DHT22;11136;48.778;9.126;2022-10-16T14:51:40;23.00;99.90
21944;DHT22;11136;48.778;9.126;2022-10-16T14:54:08;22.90;99.90
21944;DHT22;11136;48.778;9.126;2022-10-16T14:56:47;22.90;99.90
21944;DHT22;11136;48.778;9.126;2022-10-16T15:01:50;22.90;99.90
21944;DHT22;11136;48.778;9.126;2022-10-16T15:04:15;22.90;99.90
21944;DHT22;11136;48.778;9.126;2022-10-16T15:06:41;22.90;99.90
21944;DHT22;11136;48.778;9.126;2022-10-16T15:09:07;22.90;99.90
21944;DHT22;11136;48.778;9.126;2022-10-16T15:11:33;22.90;99.90
21944;DHT22;11136;48.778;9.126;2022-10-16T15:13:59;22.90;99.90
21944;DHT22;11136;48.778;9.126;2022-10-16T15:16:25;23.00;99.90
21944;DHT22;11136;48.778;9.126;2022-10-16T15:18:50;23.00;99.90
21944;DHT22;11136;48.778;9.126;2022-10-16T15:21:34;22.90;99.90
21944;DHT22;11136;48.778;9.126;2022-10-16T15:24:00;22.90;99.90
21944;DHT22;11136;48.778;9.126;2022-10-16T15:26:27;22.80;99.90
21944;DHT22;11136;48.778;9.126;2022-10-16T15:28:53;23.10;99.90
21944;DHT22;11136;48.778;9.126;2022-10-16T15:31:19;22.70;99.90
21944;DHT22;11136;48.778;9.126;2022-10-16T15:33:45;22.70;99.90
21944;DHT22;11136;48.778;9.126;2022-10-16T15:36:16;22.70;99.90
21944;DHT22;11136;48.778;9.126;2022-10-16T15:38:42;22.60;99.90
21944;DHT22;11136;48.778;9.126;2022-10-16T15:41:07;22.60;99.90
21944;DHT22;11136;48.778;9.126;2022-10-16T15:43:33;22.50;99.90
21944;DHT22;11136;48.778;9.126;2022-10-16T15:46:02;22.40;99.90
21944;DHT22;11136;48.778;9.126;2022-10-16T15:48:29;22.40;99.90
21944;DHT22;11136;48.778;9.126;2022-10-16T15:50:55;22.30;99.90
21944;DHT22;11136;48.778;9.126;2022-10-16T15:53:21;22.20;99.90
21944;DHT22;11136;48.778;9.126;2022-10-16T15:55:46;22.20;99.90
21944;DHT22;11136;48.778;9.126;2022-10-16T15:58:12;22.10;99.90
21944;DHT22;11136;48.778;9.126;2022-10-16T16:00:37;22.10;99.90
21944;DHT22;11136;48.778;9.126;2022-10-16T16:03:04;22.00;99.90
21944;DHT22;11136;48.778;9.126;2022-10-16T16:05:29;21.90;99.90
21944;DHT22;11136;48.778;9.126;2022-10-16T16:07:55;21.70;99.90
21944;DHT22;11136;48.778;9.126;2022-10-16T16:10:21;21.80;99.90
21944;DHT22;11136;48.778;9.126;2022-10-16T16:12:48;21.80;99.90
21944;DHT22;11136;48.778;9.126;2022-10-16T16:15:17;21.70;99.90
21944;DHT22;11136;48.778;9.126;2022-10-16T16:17:43;21.70;99.90
21944;DHT22;11136;48.778;9.126;2022-10-16T16:20:10;21.60;99.90
21944;DHT22;11136;48.778;9.126;2022-10-16T16:22:35;21.60;99.90
21944;DHT22;11136;48.778;9.126;2022-10-16T16:25:01;21.70;99.90
21944;DHT22;11136;48.778;9.126;2022-10-16T16:27:27;21.40;99.90
21944;DHT22;11136;48.778;9.126;2022-10-16T16:29:55;21.40;99.90
21944;DHT22;11136;48.778;9.126;2022-10-16T16:32:21;21.40;99.90
21944;DHT22;11136;48.778;9.126;2022-10-16T16:34:47;21.50;99.90
21944;DHT22;11136;48.778;9.126;2022-10-16T16:37:12;21.20;99.90
21944;DHT22;11136;48.778;9.126;2022-10-16T16:39:38;21.40;99.90
21944;DHT22;11136;48.778;9.126;2022-10-16T16:42:05;21.10;99.90
21944;DHT22;11136;48.778;9.126;2022-10-16T16:44:33;21.10;99.90
21944;DHT22;11136;48.778;9.126;2022-10-16T16:47:01;21.10;99.90
21944;DHT22;11136;48.778;9.126;2022-10-16T16:49:27;21.00;99.90
21944;DHT22;11136;48.778;9.126;2022-10-16T16:51:53;21.00;99.90
21944;DHT22;11136;48.778;9.126;2022-10-16T16:54:19;20.90;99.90
21944;DHT22;11136;48.778;9.126;2022-10-16T16:56:45;20.90;99.90
21944;DHT22;11136;48.778;9.126;2022-10-16T16:59:16;20.80;99.90
21944;DHT22;11136;48.778;9.126;2022-10-16T17:01:43;20.70;99.90
21944;DHT22;11136;48.778;9.126;2022-10-16T17:04:09;20.70;99.90
21944;DHT22;11136;48.778;9.126;2022-10-16T17:06:36;20.60;99.90
21944;DHT22;11136;48.778;9.126;2022-10-16T17:09:03;20.60;99.90
21944;DHT22;11136;48.778;9.126;2022-10-16T17:11:29;20.50;99.90
21944;DHT22;11136;48.778;9.126;2022-10-16T17:13:56;20.50;99.90
21944;DHT22;11136;48.778;9.126;2022-10-16T17:16:25;20.40;99.90
21944;DHT22;11136;48.778;9.126;2022-10-16T17:18:51;20.40;99.90
21944;DHT22;11136;48.778;9.126;2022-10-16T17:21:18;20.40;99.90
21944;DHT22;11136;48.778;9.126;2022-10-16T17:23:44;20.30;99.90
21944;DHT22;11136;48.778;9.126;2022-10-16T17:26:15;20.30;99.90
21944;DHT22;11136;48.778;9.126;2022-10-16T17:28:40;20.20;99.90
21944;DHT22;11136;48.778;9.126;2022-10-16T17:33:33;20.20;99.90
21944;DHT22;11136;48.778;9.126;2022-10-16T17:35:59;20.10;99.90
21944;DHT22;11136;48.778;9.126;2022-10-16T17:38:24;20.10;99.90